現行AC削除曲・CS専用曲

  • DDR2014に収録されていない高難易度曲や足13以上ではない対象外曲。
    (CS初出曲以外にもAC初出の削除曲も含む。)
  • 国内版の作品でプレイ不可能な曲・譜面は基本的に割愛。(データが少ないため。)
  • 難易度表記は「旧10段階表記/新20段階表記」で表す。
    10+は足10で難易度表記の足マークが点滅していることを表す。

DDR Aで削除された曲

曲名 難易度 国内
初収録
BPM NOTES/FREEZE
(SHOCK)
KUNG FU FIGHTING(激)16/5/30 5:00削除 5/6 1st 116 150/0
KUNG FU FIGHTING(鬼)16/5/30 5:00削除 -/10 1st 116 249/12
BAD GIRLS(激)16/5/30 5:00削除 5/8 2nd 122 194/0
BAD GIRLS(鬼)16/5/30 5:00削除 -/11 2nd 122 236/0
Boom Boom Dollar (Red Monster Mix)(激)16/5/30 5:00削除 6/9 2nd 135 209/0
Boom Boom Dollar (Red Monster Mix)(鬼)16/5/30 5:00削除 -/11 2nd 116 207/4(28)
stomp to my beat(激)16/5/30 5:00削除 7/10 2nd 134 248/0
stomp to my beat(鬼)16/5/30 5:00削除 8/11 2nd 134 296/0
ポリリズム(激)16/5/30 5:00削除 -/10 X 128 323/12
Trickster(激)16/5/30 5:00削除 -/9 X (60-)174 294/12
IF YOU WERE HERE(激)16/5/30 5:00削除 -/10 X2 145 266/22
IF YOU WERE HERE (L.E.D.-G STYLE REMIX)(踊)16/5/30 5:00削除 -/10 X2 85-170 338/9
IF YOU WERE HERE (L.E.D.-G STYLE REMIX)(激)16/5/30 5:00削除 -/13 X2 85-170 431/25
LOVE & JOY(踊)16/5/30 5:00削除 -/9 X3 173 276/11
LOVE & JOY(激)16/5/30 5:00削除 -/11 X3 173 352/4
折れないハート(激)16/5/30 5:00削除 -/11 2013 190 290/11
ジョジョ~その血の運命~(激)16/5/30 5:00削除 -/12 2013 146 307/10
ふりそでーしょん(激)16/5/30 5:00削除 -/12 2013 200 468/7
Burst The Gravity(激)16/5/30 5:00削除 -/11 2013 148 277/8
Choo Choo TRAIN(激)16/5/30 5:00削除 -/8 2013 115 213/7
LOVE & JOY -Risk Junk MIX-(踊)16/5/30 5:00削除 -/9 2013 180 399/16
LOVE & JOY -Risk Junk MIX-(激)16/5/30 5:00削除 -/13 2013 180 541/16
Mickey Mouse March(Eurobeat Version)(激)16/5/30 5:00削除 -/11 2013 152 298/3
女々しくて(激)16/11/07 5:00削除 -/11 X3 143 291/9
女々しくて(鬼)16/11/07 5:00削除 -/10 X3 143 189/28(78)
future gazer(激)16/11/07 5:00削除 -/9 X3 138 233/20
future gazer(鬼)16/11/07 5:00削除 -/9 X3 138 164/7(40)
STRAIGHT JET(激)16/11/07 5:00削除 -/11 X3 154 311/28
Thank You Merry Christmas(踊)16/12/26 0:00削除(期間限定楽曲) -/9 2014 220 286/32
Thank You Merry Christmas(激)16/12/26 0:00削除(期間限定楽曲) -/12 2014 220 429/41

DDR2014で削除された曲

曲名 難易度 国内
初収録
BPM NOTES/FREEZE
(SHOCK)
GOLDEN SKY(激)14/2/27 5:00削除 6/8 SN 135 248/3
コネクト(激)14/11/14 5:00削除 -/12 X3 175 296/21
DAM DARIRAM(激)14/12/26 5:00削除 -/11 X2 142 336/14
Thank You Merry Christmas(踊)15/1/1 0:00削除(期間限定楽曲) -/9 2014 220 286/32
Thank You Merry Christmas(激)15/1/1 0:00削除(期間限定楽曲) -/12 2014 220 429/41
Super Driver(踊)14/3/13 5:00削除 -/9 X2 200 292/13
Super Driver(激)14/3/13 5:00削除 -/12 X2 200 372/18
Be your wings(激)15/7/3 5:00削除 -/10 X2 138 234/18
CAPTAIN JACK (GRANDALE REMIX)(踊)15/7/3 5:00削除 -/10 X2 170 333/12
CAPTAIN JACK (GRANDALE REMIX)(激)15/7/3 5:00削除 -/13 X2 170 405/12
CAPTAIN JACK (GRANDALE REMIX)(鬼)15/7/3 5:00削除 -/11 X2 170 307/16(33)
ETERNITY(激)15/7/3 5:00削除 -/10 X2 148 297/17
Everytime We Touch(激)15/7/3 5:00削除 -/9 X2 142 226/14
EZ DO DANCE(激)15/7/3 5:00削除 -/10 X2 140 243/7
HERO(激)15/7/3 5:00削除 -/10 X2 138 281/13
Hide-away(激)15/7/3 5:00削除 -/9 X2 134 258/9
SUPER EUROBEAT <GOLD MIX>(激)15/7/3 5:00削除 -/11 X2 154 305/13
Time After Time(激)15/7/3 5:00削除 -/11 X2 137 305/8
CAPTIVE(激)15/11/27 5:00削除 -/10 2014 160 300/11
My HERO(激)15/11/27 5:00削除 -/9 2014 140 213/16
ドリームキャッチャー(踊)15/11/27 5:00削除 -/9 2014 208 348/23
ドリームキャッチャー(激)15/11/27 5:00削除 -/11 2014 208 403/21
HAPPY☆きたかた(激)15/11/27 5:00削除 -/10 2014 172 296/12
マーメイド(激)15/11/27 5:00削除 -/10 2014 154 296/18
We are チャリンコエンジェルス(激)15/11/27 5:00削除 -/10 2014 145 245/27
Everybody Say EDOGAWA(激)15/11/27 5:00削除 -/10 2014 142 279/10
my cosmic world(激)15/11/27 5:00削除 -/9 2014 138 265/9
Determination(激)15/11/27 5:00削除 -/14 2014 230 370/28
川崎純情音頭(激)15/11/27 5:00削除 -/9 132 2014 250/2
瞬間 I LOVE YOU(踊)15/11/27 5:00削除 -/9 2014 167 289/10
瞬間 I LOVE YOU(激)15/11/27 5:00削除 -/11 2014 167 358/24
僕は君に恋をした(激)15/11/27 5:00削除 -/11 2014 170 359/14
Dong! Dong!(踊)15/11/27 5:00削除 -/9 2014 210 260/7
Dong! Dong!(激)15/11/27 5:00削除 -/12 2014 210 306/10
A to Z(踊)15/11/27 5:00削除 -/9 2014 160-204 282/25
A to Z(激)15/11/27 5:00削除 -/13 2014 160-204 358/32
ルシャナの気持ち(激)15/11/27 5:00削除 -/11 2014 172 338/5
LUCKY-YO!!(激)15/11/27 5:00削除 -/10 2014 112 256/8
Boom! Boom! Miracle Emotion(踊)15/11/27 5:00削除 -/9 2014 156 269/5
Boom! Boom! Miracle Emotion(激)15/11/27 5:00削除 -/12 2014 156 327/4
ザッツ!KAIYODO(激)15/11/27 5:00削除 -/11 2014 149 302/8
乙女の真骨頂(踊)15/11/27 5:00削除 -/9 2014 180 244/18
乙女の真骨頂(激)15/11/27 5:00削除 -/12 2014 180 340/25
Field on!(踊)15/11/27 5:00削除 -/9 2014 170 282/12
Field on!(激)15/11/27 5:00削除 -/11 2014 170 345/32
Che Che Chelip~魔法のコトバ~(激)15/11/27 5:00削除 -/10 2014 125-130 243/16
らいらら(激)15/11/27 5:00削除 -/10 2014 155 264/26
HeartLatte(激)15/11/27 5:00削除 -/11 2014 135 338/4
キライじゃないのぉ(激)15/11/27 5:00削除 -/10 2014 142 261/33
ラブラブキュートなハピハピサンデー(激)15/11/27 5:00削除 -/11 2014 165 311/1
Kind Lady(激)15/12/28 5:00削除 7/9 EXT 135 231/36
Kind Lady(鬼)15/12/28 5:00削除 -/12 EXT 135 325/3
Thank You Merry Christmas(踊)15/12/28 10:00削除(期間限定楽曲) -/9 2014 220 286/32
Thank You Merry Christmas(激)15/12/28 10:00削除(期間限定楽曲) -/12 2014 220 429/41
Butterfly (2008 X-edit)(激)16/3/7 5:00削除 -/11 X 135 316/14
DUB-I-DUB (2008 X-edit)(踊)16/3/7 5:00削除 -/9 X 136 239/18
DUB-I-DUB (2008 X-edit)(激)16/3/7 5:00削除 -/12 X 136 284/13
ヘビーローテーション(踊)16/3/7 5:00削除 -/9 X3 155-178 285/33
ヘビーローテーション(激)16/3/7 5:00削除 -/11 X3 155-178 365/36
BRIGHT STREAM(激)16/3/7 5:00削除 -/10 2013 158 253/14
ウッーウッーウマウマ(゚∀゚)(Speedcake Remix)(激)16/3/7 5:00削除 -/11 2013 165 339/9
ウッーウッーウマウマ(゚∀゚)(Speedcake Remix)(鬼)16/3/7 5:00削除 -/14 2013 165 455/15
オリオンをなぞる(激)16/3/7 5:00削除 -/10 2013 182 291/18
オリオンをなぞる(鬼)16/3/7 5:00削除 -/12 2013 182 345/5
つけまつける(激)16/3/7 5:00削除 -/10 2013 145 300/19
つけまつける(鬼)16/3/7 5:00削除 -/10 2013 145 276/11(28)
マジLOVE1000%(激)16/3/7 5:00削除 -/9 2013 129 252/12
ロンドンは夜8時(LON 8PM - TYO 4AM)(踊)16/3/7 5:00削除 -/10 2013 188 388/19
ロンドンは夜8時(LON 8PM - TYO 4AM)(激)16/3/7 5:00削除 -/12 2013 188 498/0

DDR2013で削除された曲

曲名 難易度 国内
初収録
BPM NOTES/FREEZE
(SHOCK)
Butterfly(鬼) 8/11 1st 135 323/4
Have You Never Been Mellow(鬼) 8/12 1st 126 236/0
LET'S GET DOWN(鬼) 8/12 1st 130 268/0
Little Bitch(激) 6/9 1st 158 206/0
Little Bitch(鬼) 8/11 1st 158 302/0
My Fire (UKS Remix)(鬼) 9/13 1st 130 332/0
That's The Way (I Like It)(鬼) -/11 1st 110 263/0
BOYS(激) 7/10 2nd 138 209/0
BOYS(鬼) 9/13 2nd 138 318/0
DUB-I-DUB(踊) 6/9 2nd 136 205/0
DUB-I-DUB(激) 8/11 2nd 136 210/0
DUB-I-DUB(鬼) 8/13 2nd 136 273/0
GET UP'N MOVE(踊) 7/9 2nd 132 183/0
GET UP'N MOVE(激) 8/11 2nd 132 256/0
GET UP'N MOVE(鬼) -/12 2nd 132 287/16
I Believe In Miracles (The Lisa Marie Experience Radio Edit)(激) 8/11 2nd 126 246/0
I believe in miracles(鬼) -/12 2nd 126 316/4
IF YOU WERE HERE(激) ※2ndバージョン 7/10 2nd 145 210/0
IF YOU WERE HERE(鬼) ※2ndバージョン -/14 2nd 145 341/5
Smoke(激) 6/9 2nd 135 219/0
Smoke(鬼) -/10 2nd 135 145/7(24)
木星~組曲『惑星』より(激) 8/11 SN2 (73-)145 291/11
Boys (2008 X-edit)(激) -/10 X 138 238/24
GET UP'N MOVE (2008 X-edit)(激) -11 X 132 306/15
Koko Soko(激) -/10 X 140 268/5
more more more(激) -/10 X2 135 268/27
TENSHI(激) -/11 X2 138 325/4

X3で削除された曲

曲名 難易度 国内
初収録
BPM NOTES/FREEZE
(SHOCK)
DAFT PUNK IS PLAYING AT MY HOUSE(激) -/10 X2 136 302/32
Ghetto Blasta Deluxe(激) -/10 X 131 319/4
Happy(激) ※X初出 -/10 X 138 289/23
Here It Goes Again(激) -/10 X 146 324/4
Swingin'(激) -/10 X 105 245/6
U Can't Touch This(激) -/10 X 133 299/25
We Come Alive(激) -/10 X 126 291/15
世界は踊る(激) -/10 X 110 240/5
Reach Up(激) -/11 X 150 294/11
ANGELUS -アンジェラス-(激) 8/12 SN2 131 340/11


現行AC削除曲・CS専用曲 旧足9/新足13

  • DDRMAXの曲に関しては、他の作品で足9になっているものを取り上げます(一部例外あり)。
曲名 難易度 国内
初収録
BPM NOTES/FREEZE
(SHOCK)
MY FIRE(激) ※4th PLUS譜面
My Fire (UKS Remix)(鬼)と同じ譜面
9/13 (AC)1st 130 332/0
BOYS(激) ※4th PLUS譜面
BOYS(鬼)と同じ譜面
9/13 (AC)2nd 138 318/0
LOVE(激) ※4th PLUS譜面 9/- (AC)2nd 129 321/0
LUV TO ME (disco mix)(激) ※CLUB2で追加 9/12 (AC)CLUB1 154 358/0
gentle stress(激) 9/- (AC)CLUB2 174 333/0
GRADIUSIC CYBER(激) 9/- (AC)CLUB2 159-167 334/0
GRADIUSIC CYBER (CLUB ANOTHER)(激) 9/- (AC)CLUB2 159-167 346/0
ska a go go(激) 9/- (AC)CLUB2 144-160 327/0
ska a go go (CLUB ANOTHER)(激) 9/- (AC)CLUB2 144-160 383/0
butterfly (UPSWING MIX)(激) ※4th PLUS譜面 9/- (AC)3rd 170 388/0
CAPTAIN JACK (GRANDALE REMIX)(激) ※3rdバージョン 9/- (AC)3rd 170 360/0
END OF THE CENTURY(激) 9/13 (AC)3rd 171 349/0
FURUHATA'S THEME(激)
※4th当時はNINZABURO
9/- (AC)4th 170 412/0
HYPNØTIC CRISIS(激) 9/- (AC)4th 135 284/0
SAINT GOES MARCHING (REMIX)(激) 9/- (AC)4th 110-175 315/0
DO ME (H.I.G.E.O. MIX)(激) 9/- (AC)4th+ 130 346/0
Lupin the 3rd '78(激) 9/- (AC)4th+ 150 388/0
RHYTHM AND POLICE (K.O.G G3 Mix)(激) 9/- (AC)4th+ 170 420/0
WONDA (SPEED K MIX)(激) 9/- (AC)4th+ 170 379/0
B4U glorious style(激) 9/- (AC)5th 155 744/0
祭 JAPAN(激) 9/12 (AC)5th 180 447/0
NO LIMIT (RM Remix)(激) 9/- (AC)5th 141 412/0
PARANOiA ETERNAL(激) ※5th譜面 9/- (AC)5th 200 352/0
ロマンスの神様(激) 9/- (AC)5th 157 325/0
FANTASY(激) ※MAX初出 9/- (AC)MAX 160 350/30
FLASH IN THE NIGHT(激) ?/- (AC)MAX 158 413/12
JUSTIFY MY LOVE(激) 9/- (AC)MAX 140 294/48
SO DEEP (PERFECT SPHERE REMIX)(激) 9/- (AC)MAX 140 498/1
TWILIGHT ZONE (R-C Extended Club MIX)(激) 9/- (AC)MAX 138 325/21
STAY(激) 9/- (AC)MAX2 140 340/6
CARTOON HEROES (Speedy Mix)(激) 9/- (AC)EXT 170 408/10
IRRESISTIBLEMENT(激) 9/- (AC)EXT 166 355/3
Brilliant R・E・D(激) 9/12 (AC)SN 150 342/35
Drivin'(激) 9/13 (AC)SN 155 394/16
Xmix1 (Midnight Dawn)(激) -/13 (AC)X 75-300 697/22
Xmix3 (Stomp Dem Groove)(激) -/13 (AC)X 120-142 637/37
Xmix5 (Overcrush)(踊) -/13 (AC)X 70-400 671/44
PARANOiA MAX (DIRTY MIX) in roulette -X-Special-(鬼) -/13 (AC)X 190 371/12
INFINITE PRAYER(激) 9/- (CS)FES 137 450/12
祭 (J-SUMMER MIX)(激)
※FES→SNで微妙に譜面変更
9/10 (CS)FES
/(AC)SN
180 311/20
→312/21
MGS2 mission R(激) 9/- (CS)FES 150 362/6
HEAVEN IS A PLACE ON EARTH (German Election Mix)(鬼) 9/- (CS)STR 140 315/2
In My Eyes (Midihead Remix)(激) 9/- (CS)STR 142 413/22
Knock Out Regrets(鬼) 9/12 (CS)STR 180 369/22
Love Is Dreaminess(激) 9/- (CS)STR 178 465/5
Luv To Me (UCCHIE'S EDITION)(激) 9/- (CS)STR 160 307/15
TOE JAM(激) 9/- (CS)STR 112-160 426/15
VJ Army(激) 9/- (CS)STR 135-160 381/21
ZERO-ONE(激) 9/- (CS)STR 160 345/11
EternuS(激) 9/- (CS)SN2 140 368/17
SP-TRIP MACHINE ~JUNGLE MIX~ (SMM-Special)(鬼) -/13 (CS)X 160 238/3
1998 (Sparky 2006)(激) 9/- (CS)HP 150 340/6
Call On Me(激) 9/- (CS)HP 170 342/43
CANDY (UFO Mix)(激) 9/- (CS)HP 90-180 409/52
Hot Stuff(激) 9/- (CS)HP 145 339/25
I'm Flying Away(激) 9/- (CS)HP 180 394/0
little steps(激) 9/- (CS)HP 155 332/33
LOVE SHINE (Body Grooverz 2006 mix)(激) 9/- (CS)HP 177 433/8
the beat(激) 9/- (CS)HP 140 414/7
Too Little,Too Late(激) 9/- (CS)HP 83-166 301/18
We Will Live Together(激) 9/- (CS)HP 175 333/14
Closer to my Heart (jun remix)(激) 9/- (CS)FFP 145 391/27
KYOKA-SUIGETSU-ROW (DDR EDITION)(激) 9/- (CS)FFP 175 431/58
Racing with Time (NAOKI's 999 remix)(激) 9/- (CS)FFP 157 354/14
「カルメン」前奏曲(激) 9/- (CS)MF 177 383/0
フルフル♪パーティー(踊) 9/- (CS)MF 100-192 748/35
「ウイリアム・テル」序曲より(激) 9/- (CS)MF 180 498/5
AM-3P(鬼) ?/- (CS)UNI 130 264/2
ECSTASY(鬼) ?/- (CS)UNI 145(120-150) 328/21
Secret Rendez-vous(鬼) ?/- (CS)UNI 98 332/2
un deux trois(鬼) 9/- (CS)UNI 70-140 327/11
CANDY☆(鬼) ?/- (CS)UNI 192 351/53
Kiss me all night long(鬼) ?/- (CS)UNI 155 437/29
Kind Lady(鬼) 9/- (CS)UNI3 192 375/17

現行AC削除曲・CS専用曲 旧足10/新足14~

曲名 難易度 国内
初収録
BPM NOTES/FA
(SHOCK)
Xmix5 (Overcrush)(激) -/15 (AC)X 70-400 1003/45
MAD BLAST(激) 10/- (CS)FES 180 443/21
OUTER LIMITS(激) 10+/- (CS)FES 86-343 501/49
G2(激) 10/- (CS)STR 170 536/47
PARANOiA MAX ~DIRTY MIX~ (SMM-Special)(鬼) -/18 (CS)X 95-380 523/0
HOTTEST PARTY(激) 10/- (CS)MF 120-170 881/53
フルフル♪パーティー(激) 10/- (CS)MF 100-192 1048/87
MAXIMIZER(鬼) ?/- (CS)UNI 190 528/19
murmur twins(鬼) 10/- (CS)UNI3 174 512/11